createdAt,value
2023-05-03T00:00:17.523Z,97896.84
2023-05-03T00:02:46.714Z,97889.19
2023-05-03T00:05:15.700Z,97888.34
2023-05-03T00:07:45.905Z,97890.78
2023-05-03T00:10:16.022Z,97901.69
2023-05-03T00:12:45.363Z,97892.09
2023-05-03T00:15:13.597Z,97889.53
2023-05-03T00:17:41.905Z,97887.69
2023-05-03T00:20:12.151Z,97892.72
2023-05-03T00:22:40.478Z,97883.97
2023-05-03T00:25:11.108Z,97895.31
2023-05-03T00:27:39.569Z,97888.28
2023-05-03T00:30:09.716Z,97876.03
2023-05-03T00:32:38.237Z,97878.53
2023-05-03T00:35:07.441Z,97877.78
2023-05-03T00:37:36.378Z,97879.44
2023-05-03T00:40:05.827Z,97880.34
2023-05-03T00:42:37.393Z,97886.22
2023-05-03T00:45:08.240Z,97879.28
2023-05-03T00:47:37.759Z,97880.22
2023-05-03T00:50:07.618Z,97888.94
2023-05-03T00:52:36.007Z,97894.09
2023-05-03T00:55:04.262Z,97895.84
2023-05-03T00:57:32.767Z,97894.94
2023-05-03T01:00:04.049Z,97887.09
2023-05-03T01:02:32.860Z,97886.22
2023-05-03T01:05:02.660Z,97886.13
2023-05-03T01:07:37.148Z,97890.50
2023-05-03T01:10:17.933Z,97889.53
2023-05-03T01:12:55.145Z,97880.00
2023-05-03T01:15:36.709Z,97878.31
2023-05-03T01:18:09.119Z,97880.75
2023-05-03T01:20:39.393Z,97884.47
2023-05-03T01:23:19.580Z,97882.81
2023-05-03T01:25:49.431Z,97882.03
2023-05-03T01:28:17.830Z,97877.00
2023-05-03T01:30:46.656Z,97879.47
2023-05-03T01:33:18.303Z,97878.41
2023-05-03T01:35:51.986Z,97875.06
2023-05-03T01:38:20.738Z,97874.28
2023-05-03T01:40:53.682Z,97877.69
2023-05-03T01:43:22.606Z,97881.88
2023-05-03T01:45:51.325Z,97872.31
2023-05-03T01:48:20.482Z,97880.13
2023-05-03T01:50:48.969Z,97872.47
2023-05-03T01:53:17.497Z,97868.16
2023-05-03T01:55:45.822Z,97873.47
2023-05-03T01:58:16.176Z,97877.78
2023-05-03T02:00:46.803Z,97886.50
2023-05-03T02:03:16.230Z,97865.69
2023-05-03T02:05:45.362Z,97872.56
2023-05-03T02:08:13.830Z,97873.53
2023-05-03T02:10:45.272Z,97866.63
2023-05-03T02:13:17.690Z,97870.53
2023-05-03T02:15:46.158Z,97869.88
2023-05-03T02:18:16.561Z,97868.41
2023-05-03T02:20:46.820Z,97858.59
2023-05-03T02:23:15.214Z,97862.00
2023-05-03T02:25:43.582Z,97861.16
2023-05-03T02:28:11.872Z,97862.84
2023-05-03T02:30:41.763Z,97858.56
2023-05-03T02:33:10.584Z,97858.22
2023-05-03T02:35:40.589Z,97867.00
2023-05-03T02:38:08.949Z,97862.25
2023-05-03T02:40:37.976Z,97858.28
2023-05-03T02:43:06.632Z,97846.91
2023-05-03T02:45:36.683Z,97849.28
2023-05-03T02:48:07.081Z,97842.09
2023-05-03T02:50:35.792Z,97846.66
2023-05-03T02:53:04.425Z,97851.13
2023-05-03T02:55:32.967Z,97852.94
2023-05-03T02:58:01.585Z,97855.66
2023-05-03T03:00:30.113Z,97863.06
2023-05-03T03:02:58.607Z,97859.31
2023-05-03T03:05:28.598Z,97857.66
2023-05-03T03:07:56.978Z,97860.88
2023-05-03T03:10:25.825Z,97857.91
2023-05-03T03:12:54.154Z,97848.31
2023-05-03T03:15:31.801Z,97859.06
2023-05-03T03:18:00.318Z,97860.06
2023-05-03T03:20:30.142Z,97858.56
2023-05-03T03:22:58.943Z,97863.44
2023-05-03T03:25:28.092Z,97859.03
2023-05-03T03:27:58.500Z,97858.75
2023-05-03T03:30:27.443Z,97869.75
2023-05-03T03:33:06.493Z,97872.00
2023-05-03T03:35:41.625Z,97867.13
2023-05-03T03:38:10.933Z,97870.56
2023-05-03T03:40:45.475Z,97869.38
2023-05-03T03:43:13.867Z,97869.75
2023-05-03T03:45:42.345Z,97872.72
2023-05-03T03:48:14.127Z,97870.47
2023-05-03T03:50:43.894Z,97871.66
2023-05-03T03:53:14.736Z,97869.19
2023-05-03T03:55:42.973Z,97873.00
2023-05-03T03:58:11.373Z,97869.28
2023-05-03T04:00:40.211Z,97878.22
2023-05-03T04:03:14.612Z,97875.81
2023-05-03T04:05:44.782Z,97873.56
2023-05-03T04:08:13.488Z,97881.69
2023-05-03T04:10:42.789Z,97884.03
2023-05-03T04:13:11.234Z,97879.97
2023-05-03T04:15:40.144Z,97881.88
2023-05-03T04:18:08.902Z,97885.53
2023-05-03T04:20:39.779Z,97893.94
2023-05-03T04:23:12.301Z,97893.03
2023-05-03T04:25:46.832Z,97898.91
2023-05-03T04:28:16.334Z,97896.84
2023-05-03T04:30:48.453Z,97901.75
2023-05-03T04:33:22.712Z,97901.53
2023-05-03T04:35:53.438Z,97902.34
2023-05-03T04:38:23.460Z,97905.03
2023-05-03T04:40:52.138Z,97900.84
2023-05-03T04:43:20.823Z,97908.59
2023-05-03T04:45:50.648Z,97900.09
2023-05-03T04:48:23.636Z,97906.22
2023-05-03T04:50:52.784Z,97907.75
2023-05-03T04:53:24.528Z,97909.50
2023-05-03T04:56:04.446Z,97912.16
2023-05-03T04:58:36.755Z,97913.81
2023-05-03T05:01:05.757Z,97918.09
2023-05-03T05:03:34.121Z,97912.34
2023-05-03T05:06:12.451Z,97920.06
2023-05-03T05:08:44.546Z,97918.19
2023-05-03T05:11:16.281Z,97917.84
2023-05-03T05:13:44.923Z,97920.22
2023-05-03T05:16:25.060Z,97921.59
2023-05-03T05:18:59.262Z,97927.84
2023-05-03T05:21:28.864Z,97923.13
2023-05-03T05:23:59.448Z,97932.81
2023-05-03T05:26:28.493Z,97922.53
2023-05-03T05:32:08.460Z,97929.38
2023-05-03T05:34:44.660Z,97928.66
2023-05-03T05:37:16.949Z,97930.50
2023-05-03T05:39:48.196Z,97930.84
2023-05-03T05:42:18.819Z,97930.16
2023-05-03T05:44:47.276Z,97936.13
2023-05-03T05:47:16.213Z,97937.00
2023-05-03T05:49:46.696Z,97938.16
2023-05-03T05:52:16.712Z,97949.44
2023-05-03T05:54:45.168Z,97933.69
2023-05-03T05:57:15.152Z,97941.41
2023-05-03T05:59:43.542Z,97942.47
2023-05-03T06:02:17.977Z,97939.66
2023-05-03T06:04:48.198Z,97947.88
2023-05-03T06:07:17.034Z,97943.03
2023-05-03T06:09:46.630Z,97936.66
2023-05-03T06:12:17.681Z,97943.28
2023-05-03T06:15:01.068Z,97940.94
2023-05-03T06:17:38.489Z,97942.22
2023-05-03T06:20:11.851Z,97948.28
2023-05-03T06:22:41.227Z,97947.31
2023-05-03T06:25:16.226Z,97949.47
2023-05-03T06:27:49.560Z,97958.06
2023-05-03T06:30:20.591Z,97962.59
2023-05-03T06:32:50.612Z,97961.59
2023-05-03T06:35:21.998Z,97957.22
2023-05-03T06:37:51.032Z,97958.91
2023-05-03T06:40:19.472Z,97955.22
2023-05-03T06:42:50.007Z,97957.38
2023-05-03T06:45:27.003Z,97954.22
2023-05-03T06:47:55.459Z,97964.75
2023-05-03T06:50:24.769Z,97961.22
2023-05-03T06:52:53.112Z,97963.53
2023-05-03T06:55:21.371Z,97964.47
2023-05-03T06:57:52.753Z,97972.16
2023-05-03T07:00:23.394Z,97963.22
2023-05-03T07:02:51.865Z,97964.38
2023-05-03T07:05:20.583Z,97974.94
2023-05-03T07:07:49.437Z,97972.38
2023-05-03T07:10:17.702Z,97962.84
2023-05-03T07:13:12.077Z,97964.09
2023-05-03T07:15:44.314Z,97962.53
2023-05-03T07:18:13.026Z,97960.66
2023-05-03T07:20:41.583Z,97962.19
2023-05-03T07:23:09.856Z,97957.28
2023-05-03T07:25:39.488Z,97960.59
2023-05-03T07:28:07.876Z,97967.00
2023-05-03T07:30:36.277Z,97966.81
2023-05-03T07:33:09.451Z,97954.53
2023-05-03T07:35:37.697Z,97955.00
2023-05-03T07:38:06.075Z,97953.63
2023-05-03T07:40:34.294Z,97949.28
2023-05-03T07:43:03.283Z,97957.72
2023-05-03T07:45:32.394Z,97957.09
2023-05-03T07:48:00.815Z,97956.06
2023-05-03T07:50:30.615Z,97948.97
2023-05-03T07:52:59.282Z,97948.28
2023-05-03T07:55:28.481Z,97943.50
2023-05-03T07:57:59.582Z,97950.31
2023-05-03T08:00:29.928Z,97956.19
2023-05-03T08:02:58.745Z,97951.00
2023-05-03T08:05:27.433Z,97948.03
2023-05-03T08:07:57.370Z,97950.59
2023-05-03T08:10:25.845Z,97958.34
2023-05-03T08:12:54.286Z,97960.81
2023-05-03T08:15:22.948Z,97952.50
2023-05-03T08:17:51.947Z,97958.38
2023-05-03T08:20:21.117Z,97960.34
2023-05-03T08:22:49.450Z,97964.34
2023-05-03T08:25:19.785Z,97965.47
2023-05-03T08:27:48.702Z,97957.56
2023-05-03T08:30:17.807Z,97951.78
2023-05-03T08:32:46.433Z,97957.53
2023-05-03T08:35:15.428Z,97963.38
2023-05-03T08:37:44.960Z,97960.34
2023-05-03T08:40:15.453Z,97959.53
2023-05-03T08:42:57.863Z,97952.84
2023-05-03T08:45:27.022Z,97958.16
2023-05-03T08:47:55.778Z,97969.81
2023-05-03T08:50:24.244Z,97963.63
2023-05-03T08:52:54.395Z,97965.22
2023-05-03T08:55:23.897Z,97967.09
2023-05-03T08:57:53.683Z,97969.22
2023-05-03T09:00:29.527Z,97961.16
2023-05-03T09:02:58.086Z,97961.75
2023-05-03T09:05:39.028Z,97973.44
2023-05-03T09:08:09.410Z,97971.09
2023-05-03T09:10:39.942Z,97971.34
2023-05-03T09:13:11.021Z,97968.81
2023-05-03T09:15:40.108Z,97975.41
2023-05-03T09:18:19.357Z,97966.53
2023-05-03T09:20:53.232Z,97971.59
2023-05-03T09:23:31.906Z,97962.00
2023-05-03T09:26:00.848Z,97959.25
2023-05-03T09:28:31.206Z,97972.25
2023-05-03T09:31:07.667Z,97965.59
2023-05-03T09:33:40.609Z,97969.69
2023-05-03T09:36:09.718Z,97967.66
2023-05-03T09:38:39.658Z,97969.94
2023-05-03T09:41:08.275Z,97968.34
2023-05-03T09:43:49.824Z,97964.19
2023-05-03T09:46:20.674Z,97972.50
2023-05-03T09:48:50.401Z,97958.13
2023-05-03T09:51:18.931Z,97966.78
2023-05-03T09:53:47.515Z,97964.56
2023-05-03T09:56:16.484Z,97963.84
2023-05-03T09:58:46.883Z,97960.00
2023-05-03T10:01:16.673Z,97957.91
2023-05-03T10:03:47.653Z,97956.91
2023-05-03T10:06:26.872Z,97959.50
2023-05-03T10:09:00.246Z,97959.28
2023-05-03T10:11:31.486Z,97965.91
2023-05-03T10:14:01.570Z,97954.06
2023-05-03T10:16:32.802Z,97970.47
2023-05-03T10:19:07.479Z,97968.41
2023-05-03T10:21:44.078Z,97965.72
2023-05-03T10:24:14.089Z,97963.38
2023-05-03T10:26:43.104Z,97965.72
2023-05-03T10:29:49.911Z,97954.13
2023-05-03T10:32:32.562Z,97959.78
2023-05-03T10:35:06.963Z,97948.06
2023-05-03T10:37:36.262Z,97946.34
2023-05-03T10:40:09.889Z,97946.25
2023-05-03T10:42:38.440Z,97962.44
2023-05-03T10:45:10.014Z,97951.34
2023-05-03T10:47:40.864Z,97949.50
2023-05-03T10:50:28.687Z,97953.81
2023-05-03T10:52:56.885Z,97956.78
2023-05-03T10:55:25.989Z,97947.03
2023-05-03T10:57:56.581Z,97951.09
2023-05-03T11:00:31.208Z,97939.78
2023-05-03T11:03:27.385Z,97955.19
2023-05-03T11:05:56.109Z,97953.09
2023-05-03T11:08:26.012Z,97948.66
2023-05-03T11:10:59.291Z,97940.31
2023-05-03T11:13:27.573Z,97950.44
2023-05-03T11:15:57.688Z,97944.19
2023-05-03T11:18:27.985Z,97948.69
2023-05-03T11:20:56.202Z,97955.78
2023-05-03T11:23:27.154Z,97955.31
2023-05-03T11:25:55.504Z,97948.88
2023-05-03T11:28:23.914Z,97961.44
2023-05-03T11:30:52.390Z,97955.94
2023-05-03T11:33:22.326Z,97951.50
2023-05-03T11:35:50.564Z,97952.72
2023-05-03T11:38:18.848Z,97953.34
2023-05-03T11:40:47.189Z,97951.50
2023-05-03T11:43:15.370Z,97947.25
2023-05-03T11:45:46.274Z,97954.81
2023-05-03T11:48:15.241Z,97961.31
2023-05-03T11:50:51.664Z,97954.78
2023-05-03T11:53:20.384Z,97953.84
2023-05-03T11:55:49.500Z,97950.69
2023-05-03T11:58:19.917Z,97949.03
2023-05-03T12:00:49.606Z,97946.75
2023-05-03T12:03:19.763Z,97945.47
2023-05-03T12:05:51.948Z,97953.50
2023-05-03T12:08:22.106Z,97954.34
2023-05-03T12:10:55.066Z,97965.16
2023-05-03T12:13:34.580Z,97965.53
2023-05-03T12:18:51.541Z,97967.91
2023-05-03T12:23:55.693Z,97966.53
2023-05-03T12:26:25.818Z,97968.47
2023-05-03T12:28:56.942Z,97967.69
2023-05-03T12:31:28.861Z,97964.34
2023-05-03T12:34:20.091Z,97970.22
2023-05-03T12:36:49.062Z,97963.44
2023-05-03T12:39:21.563Z,97962.63
2023-05-03T12:44:23.651Z,97958.97
2023-05-03T12:46:53.396Z,97952.66
2023-05-03T12:49:23.469Z,97962.31
2023-05-03T12:52:11.139Z,97959.09
2023-05-03T12:54:42.358Z,97951.44
2023-05-03T12:57:15.595Z,97952.34
2023-05-03T12:59:52.243Z,97945.47
2023-05-03T13:04:59.092Z,97953.38
2023-05-03T13:07:32.231Z,97954.66
2023-05-03T13:12:33.545Z,97949.09
2023-05-03T13:15:03.867Z,97952.25
2023-05-03T13:17:33.132Z,97956.56
2023-05-03T13:20:01.387Z,97959.84
2023-05-03T13:22:31.995Z,97952.56
2023-05-03T13:25:00.190Z,97951.19
2023-05-03T13:27:28.660Z,97948.16
2023-05-03T13:29:57.025Z,97951.75
2023-05-03T13:32:25.780Z,97947.59
2023-05-03T13:34:54.039Z,97947.50
2023-05-03T13:37:22.169Z,97941.97
2023-05-03T13:39:52.092Z,97934.06
2023-05-03T13:42:20.419Z,97935.38
2023-05-03T13:44:48.841Z,97929.03
2023-05-03T13:47:17.164Z,97931.44
2023-05-03T13:49:45.675Z,97934.91
2023-05-03T13:52:13.858Z,97930.59
2023-05-03T13:54:43.083Z,97925.84
2023-05-03T13:57:12.751Z,97924.72
2023-05-03T13:59:41.583Z,97925.75
2023-05-03T14:02:09.819Z,97927.38
2023-05-03T14:04:38.167Z,97930.91
2023-05-03T14:07:06.447Z,97929.19
2023-05-03T14:09:39.480Z,97928.47
2023-05-03T14:12:08.741Z,97939.97
2023-05-03T14:14:38.517Z,97935.56
2023-05-03T14:17:08.415Z,97940.28
2023-05-03T14:19:37.469Z,97939.06
2023-05-03T14:22:05.686Z,97942.34
2023-05-03T14:24:34.039Z,97944.66
2023-05-03T14:27:03.141Z,97939.13
2023-05-03T14:29:31.751Z,97941.06
2023-05-03T14:32:01.344Z,97945.47
2023-05-03T14:34:30.025Z,97943.00
2023-05-03T14:36:58.409Z,97945.53
2023-05-03T14:39:26.810Z,97946.47
2023-05-03T14:41:56.413Z,97951.72
2023-05-03T14:44:25.304Z,97959.00
2023-05-03T14:46:54.236Z,97952.47
2023-05-03T14:49:23.877Z,97951.00
2023-05-03T14:51:52.343Z,97949.50
2023-05-03T14:54:23.164Z,97947.72
2023-05-03T14:56:51.448Z,97953.44
2023-05-03T14:59:19.973Z,97951.59
2023-05-03T15:01:48.190Z,97956.94
2023-05-03T15:04:16.706Z,97956.75
2023-05-03T15:06:46.517Z,97954.94
2023-05-03T15:09:14.915Z,97958.63
2023-05-03T15:11:43.210Z,97955.72
2023-05-03T15:14:12.173Z,97949.19
2023-05-03T15:16:40.616Z,97958.94
2023-05-03T15:19:09.024Z,97955.06
2023-05-03T15:21:47.654Z,97963.31
2023-05-03T15:24:16.417Z,97956.31
2023-05-03T15:26:44.860Z,97963.84
2023-05-03T15:29:13.472Z,97963.78
2023-05-03T15:31:42.802Z,97962.44
2023-05-03T15:34:12.690Z,97967.31
2023-05-03T15:36:41.735Z,97964.78
2023-05-03T15:39:13.108Z,97973.66
2023-05-03T15:41:41.412Z,97967.75
2023-05-03T15:44:09.978Z,97960.53
2023-05-03T15:46:40.186Z,97963.84
2023-05-03T15:49:10.476Z,97961.28
2023-05-03T15:51:39.396Z,97960.28
2023-05-03T15:54:08.031Z,97962.16
2023-05-03T15:56:38.589Z,97964.56
2023-05-03T15:59:07.539Z,97965.50
2023-05-03T16:01:35.718Z,97971.97
2023-05-03T16:04:04.094Z,97973.53
2023-05-03T16:06:32.344Z,97970.81
2023-05-03T16:09:00.887Z,97969.25
2023-05-03T16:11:29.074Z,97961.97
2023-05-03T16:13:58.675Z,97959.41
2023-05-03T16:16:27.489Z,97951.28
2023-05-03T16:18:55.736Z,97959.34
2023-05-03T16:21:24.057Z,97960.44
2023-05-03T16:23:54.387Z,97960.19
2023-05-03T16:26:22.678Z,97968.72
2023-05-03T16:28:51.006Z,97963.13
2023-05-03T16:31:20.703Z,97965.28
2023-05-03T16:33:48.987Z,97962.38
2023-05-03T16:36:18.780Z,97957.63
2023-05-03T16:38:47.033Z,97959.28
2023-05-03T16:41:15.346Z,97958.47
2023-05-03T16:43:43.483Z,97965.00
2023-05-03T16:46:11.785Z,97956.59
2023-05-03T16:48:41.552Z,97961.28
2023-05-03T16:51:09.935Z,97949.09
2023-05-03T16:53:38.226Z,97961.09
2023-05-03T16:56:07.012Z,97958.94
2023-05-03T16:58:35.296Z,97962.19
2023-05-03T17:01:03.546Z,97967.72
2023-05-03T17:03:31.789Z,97978.19
2023-05-03T17:06:03.130Z,97977.97
2023-05-03T17:08:32.902Z,97979.75
2023-05-03T17:11:02.496Z,97980.41
2023-05-03T17:13:31.809Z,97978.28
2023-05-03T17:16:00.044Z,97976.09
2023-05-03T17:18:28.277Z,97978.41
2023-05-03T17:21:02.020Z,97990.00
2023-05-03T17:23:30.492Z,97991.91
2023-05-03T17:25:59.310Z,97989.75
2023-05-03T17:28:28.102Z,97996.88
2023-05-03T17:30:56.402Z,97994.91
2023-05-03T17:33:27.718Z,97998.59
2023-05-03T17:35:57.249Z,97998.47
2023-05-03T17:38:26.929Z,97995.41
2023-05-03T17:40:55.803Z,97998.28
2023-05-03T17:43:25.537Z,98006.59
2023-05-03T17:45:54.391Z,98013.50
2023-05-03T17:48:22.889Z,98008.47
2023-05-03T17:50:58.815Z,98014.06
2023-05-03T17:53:29.135Z,98020.69
2023-05-03T17:55:58.088Z,98024.34
2023-05-03T17:58:26.997Z,98017.78
2023-05-03T18:00:56.934Z,98011.84
2023-05-03T18:03:26.275Z,98018.44
2023-05-03T18:05:56.254Z,98024.72
2023-05-03T18:08:25.244Z,98023.78
2023-05-03T18:10:55.642Z,98028.94
2023-05-03T18:13:25.136Z,98031.00
2023-05-03T18:15:54.116Z,98031.00
2023-05-03T18:18:23.338Z,98025.28
2023-05-03T18:20:59.047Z,98028.00
2023-05-03T18:23:28.438Z,98027.31
2023-05-03T18:26:00.417Z,98036.84
2023-05-03T18:28:29.322Z,98039.19
2023-05-03T18:30:58.094Z,98039.94
2023-05-03T18:33:26.902Z,98042.75
2023-05-03T18:35:55.595Z,98046.13
2023-05-03T18:38:24.716Z,98050.66
2023-05-03T18:40:56.036Z,98046.22
2023-05-03T18:43:26.440Z,98054.91
2023-05-03T18:45:55.814Z,98055.75
2023-05-03T18:48:25.030Z,98059.41
2023-05-03T18:50:54.738Z,98056.41
2023-05-03T18:53:31.325Z,98066.00
2023-05-03T18:56:00.930Z,98073.59
2023-05-03T18:58:32.656Z,98068.56
2023-05-03T19:01:02.415Z,98072.72
2023-05-03T19:03:35.185Z,98067.47
2023-05-03T19:06:05.384Z,98071.81
2023-05-03T19:08:36.144Z,98072.59
2023-05-03T19:11:09.406Z,98066.66
2023-05-03T19:13:39.928Z,98072.19
2023-05-03T19:16:09.236Z,98072.69
2023-05-03T19:18:40.323Z,98071.53
2023-05-03T19:21:09.706Z,98066.91
2023-05-03T19:23:39.768Z,98071.03
2023-05-03T19:26:10.631Z,98069.19
2023-05-03T19:28:47.556Z,98067.75
2023-05-03T19:31:17.937Z,98072.81
2023-05-03T19:33:47.617Z,98074.59
2023-05-03T19:36:17.220Z,98069.34
2023-05-03T19:38:46.459Z,98074.91
2023-05-03T19:41:15.668Z,98068.66
2023-05-03T19:43:47.542Z,98070.59
2023-05-03T19:46:17.840Z,98071.38
2023-05-03T19:48:48.022Z,98072.13
2023-05-03T19:51:20.500Z,98065.88
2023-05-03T19:53:49.266Z,98070.34
2023-05-03T19:56:18.526Z,98069.22
2023-05-03T19:58:50.766Z,98071.53
2023-05-03T20:01:20.573Z,98070.66
2023-05-03T20:03:50.355Z,98067.63
2023-05-03T20:06:19.893Z,98062.91
2023-05-03T20:08:51.325Z,98067.25
2023-05-03T20:11:20.893Z,98061.25
2023-05-03T20:13:54.826Z,98070.59
2023-05-03T20:16:27.725Z,98062.91
2023-05-03T20:18:57.939Z,98062.84
2023-05-03T20:21:26.622Z,98059.47
2023-05-03T20:23:56.013Z,98064.50
2023-05-03T20:26:25.852Z,98060.69
2023-05-03T20:28:55.882Z,98060.03
2023-05-03T20:31:25.241Z,98059.66
2023-05-03T20:33:54.249Z,98061.56
2023-05-03T20:36:22.831Z,98055.41
2023-05-03T20:38:51.454Z,98061.31
2023-05-03T20:41:20.030Z,98070.94
2023-05-03T20:43:48.323Z,98060.41
2023-05-03T20:46:18.845Z,98057.16
2023-05-03T20:48:47.860Z,98061.78
2023-05-03T20:51:16.138Z,98051.34
2023-05-03T20:53:44.514Z,98058.56
2023-05-03T20:56:12.835Z,98058.81
2023-05-03T20:58:41.237Z,98059.69
2023-05-03T21:01:09.537Z,98053.66
2023-05-03T21:03:39.287Z,98052.91
2023-05-03T21:06:07.784Z,98050.44
2023-05-03T21:08:36.948Z,98047.47
2023-05-03T21:11:05.346Z,98042.25
2023-05-03T21:13:35.787Z,98037.94
2023-05-03T21:16:04.563Z,98043.16
2023-05-03T21:18:32.865Z,98039.69
2023-05-03T21:21:02.683Z,98048.38
2023-05-03T21:23:30.933Z,98041.47
2023-05-03T21:26:00.194Z,98045.78
2023-05-03T21:28:30.551Z,98048.78
2023-05-03T21:30:58.908Z,98038.16
2023-05-03T21:33:27.316Z,98048.63
2023-05-03T21:35:55.604Z,98050.63
2023-05-03T21:38:25.683Z,98047.03
2023-05-03T21:40:53.918Z,98042.78
2023-05-03T21:43:22.379Z,98048.84
2023-05-03T21:45:50.685Z,98043.84
2023-05-03T21:48:18.971Z,98042.94
2023-05-03T21:50:55.313Z,98047.16
2023-05-03T21:53:25.058Z,98049.97
2023-05-03T21:55:53.529Z,98043.84
2023-05-03T21:58:21.814Z,98048.50
2023-05-03T22:00:50.148Z,98047.84
2023-05-03T22:03:18.651Z,98053.16
2023-05-03T22:05:48.765Z,98059.84
2023-05-03T22:08:18.295Z,98053.16
2023-05-03T22:10:47.955Z,98065.66
2023-05-03T22:13:16.277Z,98059.94
2023-05-03T22:15:44.693Z,98054.03
2023-05-03T22:18:13.130Z,98054.00
2023-05-03T22:20:41.411Z,98052.22
2023-05-03T22:23:09.792Z,98056.59
2023-05-03T22:25:38.150Z,98056.66
2023-05-03T22:28:07.938Z,98053.06
2023-05-03T22:30:36.219Z,98054.78
2023-05-03T22:33:04.608Z,98050.47
2023-05-03T22:35:32.878Z,98053.09
2023-05-03T22:38:01.222Z,98055.75
2023-05-03T22:40:29.395Z,98054.13
2023-05-03T22:42:57.753Z,98052.44
2023-05-03T22:45:27.771Z,98057.97
2023-05-03T22:47:56.393Z,98054.34
2023-05-03T22:50:24.765Z,98051.50
2023-05-03T22:52:53.184Z,98058.25
2023-05-03T22:55:21.497Z,98055.47
2023-05-03T22:57:49.747Z,98054.78
2023-05-03T23:00:18.214Z,98052.34
2023-05-03T23:02:48.647Z,98050.69
2023-05-03T23:05:16.982Z,98053.41
2023-05-03T23:07:45.366Z,98050.16
2023-05-03T23:10:13.856Z,98052.59
2023-05-03T23:12:42.129Z,98049.19
2023-05-03T23:15:11.425Z,98044.94
2023-05-03T23:17:40.084Z,98039.50
2023-05-03T23:20:11.843Z,98044.59
2023-05-03T23:22:41.105Z,98042.59
2023-05-03T23:25:10.776Z,98047.13
2023-05-03T23:27:39.056Z,98044.00
2023-05-03T23:30:09.142Z,98045.09
2023-05-03T23:32:38.127Z,98035.06
2023-05-03T23:35:07.531Z,98039.19
2023-05-03T23:37:37.854Z,98037.53
2023-05-03T23:40:07.334Z,98038.53
2023-05-03T23:42:35.702Z,98041.28
2023-05-03T23:45:04.045Z,98037.91
2023-05-03T23:47:32.380Z,98038.03
2023-05-03T23:50:00.698Z,98032.00
2023-05-03T23:52:29.015Z,98024.84
2023-05-03T23:54:58.583Z,98037.28
2023-05-03T23:57:26.976Z,98030.47
2023-05-03T23:59:55.539Z,98029.75
